22°C Temp
19°C Dewpoint
83% Humidity
Temperature
5 KM/H
3 MPH
3 KTS
170°
Due South

Wind Speed
Clear
Conditions
Pressure 1014.92 (hPa) - 29.97 (in)
Visibility 6.2 (mi) - 10.0 (km)

Current Conditions
LGAV
Location 12(km)
Metar :LGAV 282050Z 17003KT CAVOK 22/19 Q1015 NOSIG
Mon 28th September 22:50 pm

Airport
  Metar Aviation API Data Provided by https://www.checkwx.com/ PHP scripts by weather34.com ©2020